createdAt,value
2018-06-23T00:01:52.274Z,6.47
2018-06-23T00:06:34.565Z,6.63
2018-06-23T00:11:13.082Z,5.70
2018-06-23T00:15:55.277Z,9.47
2018-06-23T00:20:33.837Z,7.00
2018-06-23T00:25:18.869Z,7.50
2018-06-23T00:29:57.407Z,6.73
2018-06-23T00:34:39.241Z,8.70
2018-06-23T00:39:17.883Z,11.37
2018-06-23T00:43:56.367Z,6.50
2018-06-23T00:48:38.499Z,6.07
2018-06-23T00:53:16.982Z,6.57
2018-06-23T00:57:56.696Z,6.47
2018-06-23T01:02:35.297Z,7.03
2018-06-23T01:07:19.461Z,7.10
2018-06-23T01:11:58.043Z,6.30
2018-06-23T01:16:41.995Z,6.40
2018-06-23T01:21:20.454Z,6.37
2018-06-23T01:26:00.134Z,8.47
2018-06-23T01:30:38.703Z,6.53
2018-06-23T01:35:18.280Z,6.60
2018-06-23T01:39:56.945Z,6.93
2018-06-23T01:44:40.909Z,6.80
2018-06-23T01:49:19.519Z,6.33
2018-06-23T01:53:58.166Z,6.77
2018-06-23T01:58:37.796Z,11.73
2018-06-23T02:03:16.370Z,6.37
2018-06-23T02:07:59.821Z,6.70
2018-06-23T02:12:38.417Z,6.90
2018-06-23T02:17:25.932Z,6.70
2018-06-23T02:22:09.794Z,8.30
2018-06-23T02:26:54.668Z,8.17
2018-06-23T02:31:38.485Z,7.63
2018-06-23T02:36:20.564Z,8.97
2018-06-23T02:40:59.092Z,8.23
2018-06-23T02:45:41.058Z,8.40
2018-06-23T02:50:19.651Z,16.77
2018-06-23T02:55:02.005Z,13.97
2018-06-23T02:59:40.481Z,15.10
2018-06-23T03:04:20.116Z,15.80
2018-06-23T03:08:58.690Z,16.70
2018-06-23T03:13:37.204Z,17.43
2018-06-23T03:18:19.615Z,19.47
2018-06-23T03:22:58.146Z,23.60
2018-06-23T03:27:37.777Z,25.87
2018-06-23T03:32:16.360Z,22.37
2018-06-23T03:36:56.055Z,21.90
2018-06-23T03:41:34.625Z,19.63
2018-06-23T03:46:14.575Z,20.83
2018-06-23T03:50:53.199Z,18.43
2018-06-23T03:55:35.350Z,11.60
2018-06-23T04:00:13.942Z,9.07
2018-06-23T04:04:53.664Z,10.90
2018-06-23T04:09:32.238Z,7.13
2018-06-23T04:14:14.529Z,8.03
2018-06-23T04:18:56.653Z,7.47
2018-06-23T04:23:35.293Z,8.77
2018-06-23T04:28:13.997Z,10.80
2018-06-23T04:32:52.608Z,13.13
2018-06-23T04:37:31.269Z,12.00
2018-06-23T04:42:09.797Z,16.60
2018-06-23T04:46:48.526Z,6.70
2018-06-23T04:51:27.161Z,5.70
2018-06-23T04:56:05.650Z,9.23
2018-06-23T05:00:44.182Z,6.70
2018-06-23T05:05:26.528Z,6.80
2018-06-23T05:10:05.055Z,7.43
2018-06-23T05:14:44.687Z,7.63
2018-06-23T05:20:52.458Z,8.73
2018-06-23T05:25:32.074Z,6.30
2018-06-23T05:30:10.741Z,3.50
2018-06-23T05:34:53.041Z,4.43
2018-06-23T05:39:34.330Z,3.20
2018-06-23T05:44:15.325Z,5.63
2018-06-23T05:48:54.677Z,4.23
2018-06-23T05:53:36.880Z,6.33
2018-06-23T05:58:15.512Z,2.60
2018-06-23T06:02:54.170Z,5.47
2018-06-23T06:07:35.722Z,4.30
2018-06-23T06:12:28.926Z,4.03
2018-06-23T06:17:29.672Z,7.03
2018-06-23T06:22:08.239Z,5.80
2018-06-23T06:26:47.063Z,2.83
2018-06-23T06:31:25.656Z,2.50
2018-06-23T06:36:05.991Z,2.93
2018-06-23T06:40:45.543Z,3.17
2018-06-23T06:45:27.658Z,8.70
2018-06-23T06:50:06.346Z,5.47
2018-06-23T06:54:46.992Z,2.83
2018-06-23T06:59:25.637Z,12.57
2018-06-23T07:04:07.676Z,4.50
2018-06-23T07:08:46.343Z,4.03
2018-06-23T07:13:25.973Z,7.07
2018-06-23T07:18:04.609Z,6.23
2018-06-23T07:22:44.055Z,7.30
2018-06-23T07:27:26.252Z,3.37
2018-06-23T07:32:05.324Z,7.03
2018-06-23T07:36:44.979Z,4.83
2018-06-23T07:41:23.641Z,5.50
2018-06-23T07:46:05.197Z,3.63
2018-06-23T07:50:45.620Z,3.17
2018-06-23T07:55:25.115Z,2.73
2018-06-23T08:00:03.475Z,3.73
2018-06-23T08:04:44.860Z,6.17
2018-06-23T08:09:23.417Z,6.47
2018-06-23T08:14:02.190Z,3.47
2018-06-23T08:18:40.810Z,6.90
2018-06-23T08:23:20.154Z,6.27
2018-06-23T08:27:58.677Z,10.17
2018-06-23T08:32:37.330Z,2.80
2018-06-23T08:37:17.157Z,3.67
2018-06-23T08:41:55.698Z,12.90
2018-06-23T08:46:34.485Z,9.83
2018-06-23T08:51:12.991Z,4.83
2018-06-23T08:55:54.690Z,5.60
2018-06-23T09:00:33.222Z,5.07
2018-06-23T09:05:12.995Z,7.90
2018-06-23T09:09:51.438Z,4.53
2018-06-23T09:14:30.333Z,6.20
2018-06-23T09:19:08.921Z,3.10
2018-06-23T09:23:47.553Z,4.67
2018-06-23T09:28:26.093Z,6.47
2018-06-23T09:33:04.572Z,29.90
2018-06-23T09:37:43.005Z,4.37
2018-06-23T09:42:21.758Z,7.93
2018-06-23T09:47:00.425Z,5.57
2018-06-23T09:51:39.007Z,9.57
2018-06-23T09:56:17.943Z,8.23
2018-06-23T10:00:56.516Z,7.53
2018-06-23T10:05:34.982Z,5.93
2018-06-23T10:10:13.543Z,10.23
2018-06-23T10:14:56.363Z,15.57
2018-06-23T10:19:35.011Z,5.90
2018-06-23T10:24:17.017Z,5.43
2018-06-23T10:28:55.408Z,15.13
2018-06-23T10:33:35.004Z,10.13
2018-06-23T10:38:13.731Z,4.37
2018-06-23T10:42:52.321Z,7.23
2018-06-23T10:47:30.898Z,3.40
2018-06-23T10:52:09.568Z,6.83
2018-06-23T10:56:49.478Z,8.67
2018-06-23T11:01:28.083Z,9.07
2018-06-23T11:06:09.691Z,2.70
2018-06-23T11:10:48.517Z,9.27
2018-06-23T11:15:27.380Z,5.43
2018-06-23T11:20:11.262Z,9.63
2018-06-23T11:24:52.870Z,5.90
2018-06-23T11:29:31.318Z,5.47
2018-06-23T11:34:10.030Z,5.07
2018-06-23T11:38:48.533Z,5.27
2018-06-23T11:43:27.283Z,5.80
2018-06-23T11:48:05.730Z,3.83
2018-06-23T11:52:45.435Z,5.77
2018-06-23T11:57:24.197Z,4.53
2018-06-23T12:02:02.817Z,4.10
2018-06-23T12:06:41.418Z,3.10
2018-06-23T12:11:21.013Z,4.43
2018-06-23T12:15:59.595Z,3.27
2018-06-23T12:20:38.172Z,3.50
2018-06-23T12:25:20.592Z,3.70
2018-06-23T12:29:59.110Z,6.73
2018-06-23T12:34:41.356Z,3.60
2018-06-23T12:39:19.984Z,3.43
2018-06-23T12:43:58.746Z,4.03
2018-06-23T12:48:37.357Z,3.13
2018-06-23T12:53:19.426Z,3.07
2018-06-23T12:57:58.035Z,6.27
2018-06-23T13:02:40.220Z,4.20
2018-06-23T13:07:18.779Z,4.70
2018-06-23T13:11:57.418Z,5.73
2018-06-23T13:16:39.513Z,3.70
2018-06-23T13:21:17.991Z,2.70
2018-06-23T13:25:57.703Z,2.60
2018-06-23T13:30:36.333Z,3.00
2018-06-23T13:35:16.935Z,3.30
2018-06-23T13:39:55.540Z,3.10
2018-06-23T13:44:37.592Z,3.23
2018-06-23T13:49:16.232Z,3.60
2018-06-23T13:53:54.836Z,6.47
2018-06-23T13:58:33.300Z,3.93
2018-06-23T14:03:12.941Z,3.17
2018-06-23T14:07:51.596Z,3.50
2018-06-23T14:12:31.287Z,5.97
2018-06-23T14:17:09.826Z,8.77
2018-06-23T14:21:49.515Z,3.90
2018-06-23T14:26:33.742Z,5.07
2018-06-23T14:31:12.329Z,4.87
2018-06-23T14:35:52.239Z,6.63
2018-06-23T14:40:30.722Z,19.00
2018-06-23T14:45:10.803Z,2.63
2018-06-23T14:49:49.481Z,3.27
2018-06-23T14:54:32.346Z,2.90
2018-06-23T14:59:12.116Z,3.40
2018-06-23T15:03:50.737Z,2.63
2018-06-23T15:08:39.974Z,4.97
2018-06-23T15:13:22.188Z,2.27
2018-06-23T15:18:02.377Z,6.80
2018-06-23T15:22:43.317Z,9.10
2018-06-23T15:27:22.015Z,4.37
2018-06-23T15:32:00.454Z,2.83
2018-06-23T15:36:39.084Z,4.37
2018-06-23T15:41:17.744Z,6.77
2018-06-23T15:46:01.080Z,2.10
2018-06-23T15:50:39.747Z,1.77
2018-06-23T15:55:21.619Z,2.00
2018-06-23T16:00:00.265Z,6.50
2018-06-23T16:04:41.978Z,3.87
2018-06-23T16:09:20.426Z,2.90
2018-06-23T16:14:03.039Z,2.93
2018-06-23T16:18:41.793Z,4.83
2018-06-23T16:23:24.128Z,5.67
2018-06-23T16:28:02.585Z,5.27
2018-06-23T16:32:44.370Z,5.90
2018-06-23T16:37:22.949Z,5.47
2018-06-23T16:42:05.593Z,4.93
2018-06-23T16:46:44.191Z,4.40
2018-06-23T16:51:22.789Z,8.63
2018-06-23T16:56:02.618Z,5.97
2018-06-23T17:00:41.213Z,3.17
2018-06-23T17:05:20.037Z,9.73
2018-06-23T17:09:58.536Z,8.57
2018-06-23T17:14:40.551Z,6.13
2018-06-23T17:19:19.514Z,5.93
2018-06-23T17:24:03.453Z,7.63
2018-06-23T17:28:42.579Z,9.23
2018-06-23T17:33:25.859Z,5.07
2018-06-23T17:38:05.678Z,4.80
2018-06-23T17:42:48.305Z,3.30
2018-06-23T17:47:27.345Z,3.20
2018-06-23T17:52:07.691Z,7.50
2018-06-23T17:56:47.476Z,8.57
2018-06-23T18:01:26.538Z,5.73
2018-06-23T18:06:17.414Z,17.30
2018-06-23T18:10:56.396Z,12.17
2018-06-23T18:15:36.713Z,5.07
2018-06-23T18:20:17.393Z,2.90
2018-06-23T18:24:59.647Z,14.37
2018-06-23T18:29:38.808Z,9.07
2018-06-23T18:34:20.497Z,7.67
2018-06-23T18:38:59.157Z,11.50
2018-06-23T18:43:41.676Z,6.03
2018-06-23T18:48:20.267Z,4.60
2018-06-23T18:53:01.989Z,7.07
2018-06-23T18:57:40.602Z,7.57
2018-06-23T19:02:22.783Z,5.63
2018-06-23T19:07:01.697Z,5.93
2018-06-23T19:11:41.868Z,4.97
2018-06-23T19:16:20.909Z,7.77
2018-06-23T19:20:59.944Z,5.63
2018-06-23T19:25:39.550Z,5.40
2018-06-23T19:30:18.140Z,4.73
2018-06-23T19:34:59.717Z,4.20
2018-06-23T19:39:38.328Z,2.97
2018-06-23T19:44:18.016Z,3.63
2018-06-23T19:48:56.518Z,4.77
2018-06-23T19:53:36.557Z,9.67
2018-06-23T19:58:15.060Z,4.63
2018-06-23T20:02:53.738Z,3.23
2018-06-23T20:07:32.553Z,3.73
2018-06-23T20:12:12.311Z,4.40
2018-06-23T20:16:50.902Z,3.70
2018-06-23T20:21:29.406Z,3.93
2018-06-23T20:26:07.963Z,3.00
2018-06-23T20:30:47.407Z,7.90
2018-06-23T20:35:26.573Z,3.30
2018-06-23T20:40:05.646Z,6.53
2018-06-23T20:44:44.258Z,3.00
2018-06-23T20:49:22.882Z,3.77
2018-06-23T20:54:01.561Z,3.80
2018-06-23T20:58:40.218Z,4.07
2018-06-23T21:03:18.949Z,4.73
2018-06-23T21:07:58.146Z,3.93
2018-06-23T21:12:36.770Z,4.20
2018-06-23T21:17:15.421Z,4.87
2018-06-23T21:21:54.179Z,2.63
2018-06-23T21:26:32.776Z,7.40
2018-06-23T21:31:11.386Z,4.97
2018-06-23T21:35:49.868Z,2.80
2018-06-23T21:40:28.955Z,2.57
2018-06-23T21:45:09.249Z,5.40
2018-06-23T21:49:47.787Z,5.73
2018-06-23T21:54:26.709Z,3.20
2018-06-23T21:59:05.226Z,2.33
2018-06-23T22:03:46.979Z,2.60
2018-06-23T22:08:25.615Z,2.40
2018-06-23T22:13:04.893Z,3.63
2018-06-23T22:17:43.720Z,2.73
2018-06-23T22:22:22.500Z,1.80
2018-06-23T22:27:00.998Z,5.90
2018-06-23T22:31:39.869Z,2.13
2018-06-23T22:36:18.437Z,5.73
2018-06-23T22:40:56.921Z,2.90
2018-06-23T22:45:35.490Z,2.80
2018-06-23T22:50:14.136Z,2.03
2018-06-23T22:54:53.701Z,4.20
2018-06-23T22:59:32.221Z,1.10
2018-06-23T23:04:11.053Z,1.80
2018-06-23T23:08:49.746Z,1.47
2018-06-23T23:13:28.566Z,1.00
2018-06-23T23:18:07.188Z,2.13
2018-06-23T23:22:45.914Z,1.93
2018-06-23T23:27:24.392Z,2.43
2018-06-23T23:32:03.216Z,2.10
2018-06-23T23:36:41.742Z,2.70
2018-06-23T23:41:21.604Z,4.87
2018-06-23T23:46:00.017Z,2.97
2018-06-23T23:50:38.537Z,1.60
2018-06-23T23:55:20.177Z,1.80
2018-06-23T23:59:58.682Z,1.80
